createdAt,value
2023-02-03T00:03:34.479Z,3.50
2023-02-03T00:09:12.572Z,3.50
2023-02-03T00:11:50.198Z,3.60
2023-02-03T00:14:24.321Z,3.60
2023-02-03T00:17:02.701Z,3.60
2023-02-03T00:19:41.836Z,3.70
2023-02-03T00:22:16.737Z,3.80
2023-02-03T00:24:47.581Z,3.80
2023-02-03T00:27:30.530Z,3.70
2023-02-03T00:30:07.387Z,3.70
2023-02-03T00:32:42.415Z,3.70
2023-02-03T00:35:23.080Z,3.60
2023-02-03T00:38:11.332Z,3.70
2023-02-03T00:41:09.171Z,3.70
2023-02-03T00:43:52.131Z,3.60
2023-02-03T00:46:33.227Z,3.60
2023-02-03T00:49:19.013Z,3.60
2023-02-03T00:51:56.155Z,3.50
2023-02-03T00:54:32.054Z,3.60
2023-02-03T00:57:13.722Z,3.70
2023-02-03T00:59:57.987Z,3.60
2023-02-03T01:02:49.390Z,3.60
2023-02-03T01:05:22.032Z,3.60
2023-02-03T01:07:54.453Z,3.60
2023-02-03T01:10:34.822Z,3.60
2023-02-03T01:13:07.585Z,3.60
2023-02-03T01:15:41.177Z,3.60
2023-02-03T01:18:18.508Z,3.60
2023-02-03T01:23:44.079Z,3.70
2023-02-03T01:26:23.282Z,3.60
2023-02-03T01:29:33.180Z,3.60
2023-02-03T01:32:38.375Z,3.60
2023-02-03T01:35:14.165Z,3.70
2023-02-03T01:37:49.350Z,3.60
2023-02-03T01:40:25.054Z,3.70
2023-02-03T01:43:05.871Z,3.80
2023-02-03T01:45:38.487Z,3.80
2023-02-03T01:48:27.419Z,3.80
2023-02-03T01:51:00.228Z,3.70
2023-02-03T01:54:02.255Z,3.80
2023-02-03T01:56:45.202Z,3.80
2023-02-03T01:59:22.657Z,3.80
2023-02-03T02:01:55.586Z,3.90
2023-02-03T02:04:43.148Z,3.90
2023-02-03T02:07:18.954Z,3.90
2023-02-03T02:10:00.061Z,3.90
2023-02-03T02:12:49.978Z,4.00
2023-02-03T02:15:27.126Z,4.00
2023-02-03T02:18:12.688Z,4.00
2023-02-03T02:20:57.346Z,4.10
2023-02-03T02:23:58.631Z,4.10
2023-02-03T02:26:40.859Z,4.10
2023-02-03T02:29:45.987Z,4.10
2023-02-03T02:32:33.840Z,4.20
2023-02-03T02:35:09.498Z,4.20
2023-02-03T02:37:47.265Z,4.30
2023-02-03T02:40:33.037Z,4.30
2023-02-03T02:43:09.827Z,4.40
2023-02-03T02:45:46.331Z,4.40
2023-02-03T02:48:24.778Z,4.50
2023-02-03T02:51:01.487Z,4.50
2023-02-03T02:53:39.109Z,4.60
2023-02-03T02:56:15.535Z,4.70
2023-02-03T02:58:50.303Z,4.80
2023-02-03T03:01:23.936Z,4.90
2023-02-03T03:04:08.909Z,5.00
2023-02-03T03:06:45.205Z,5.10
2023-02-03T03:09:20.700Z,5.20
2023-02-03T03:11:52.543Z,5.20
2023-02-03T03:14:28.540Z,5.30
2023-02-03T03:17:00.547Z,5.30
2023-02-03T03:22:20.837Z,5.40
2023-02-03T03:24:55.577Z,5.50
2023-02-03T03:27:31.068Z,5.50
2023-02-03T03:30:03.431Z,5.50
2023-02-03T03:32:40.717Z,5.60
2023-02-03T03:35:17.022Z,5.60
2023-02-03T03:37:59.403Z,5.60
2023-02-03T03:40:38.308Z,5.60
2023-02-03T03:43:13.905Z,5.70
2023-02-03T03:45:49.178Z,5.70
2023-02-03T03:48:37.617Z,5.70
2023-02-03T03:51:29.080Z,5.70
2023-02-03T03:54:10.022Z,5.80
2023-02-03T03:57:03.805Z,5.80
2023-02-03T03:59:41.210Z,5.80
2023-02-03T04:02:22.696Z,5.90
2023-02-03T04:04:58.315Z,5.90
2023-02-03T04:07:40.543Z,5.90
2023-02-03T04:10:26.691Z,6.00
2023-02-03T04:12:56.543Z,6.10
2023-02-03T04:15:27.101Z,6.20
2023-02-03T04:18:04.640Z,6.30
2023-02-03T04:20:36.415Z,6.30
2023-02-03T04:23:15.921Z,6.30
2023-02-03T04:25:55.418Z,6.40
2023-02-03T04:28:27.974Z,6.50
2023-02-03T04:30:57.857Z,6.60
2023-02-03T04:33:31.018Z,6.60
2023-02-03T04:36:06.522Z,6.70
2023-02-03T04:41:47.094Z,6.80
2023-02-03T04:44:20.754Z,6.80
2023-02-03T04:46:59.806Z,6.80
2023-02-03T04:49:32.243Z,6.80
2023-02-03T04:52:01.626Z,6.90
2023-02-03T04:54:40.281Z,6.90
2023-02-03T04:57:13.815Z,6.90
2023-02-03T04:59:47.631Z,6.90
2023-02-03T05:02:35.364Z,6.90
2023-02-03T05:05:18.886Z,7.00
2023-02-03T05:07:53.357Z,6.90
2023-02-03T05:10:29.021Z,7.00
2023-02-03T05:12:58.376Z,7.00
2023-02-03T05:15:42.725Z,7.00
2023-02-03T05:18:15.511Z,7.00
2023-02-03T05:20:57.792Z,7.00
2023-02-03T05:23:45.101Z,7.00
2023-02-03T05:26:31.629Z,7.00
2023-02-03T05:29:14.649Z,7.00
2023-02-03T05:31:50.000Z,7.00
2023-02-03T05:34:22.349Z,7.00
2023-02-03T05:36:54.806Z,7.00
2023-02-03T05:39:24.412Z,7.00
2023-02-03T05:42:10.344Z,7.10
2023-02-03T05:44:41.285Z,7.10
2023-02-03T05:47:11.370Z,7.10
2023-02-03T05:49:45.280Z,7.10
2023-02-03T05:52:21.258Z,7.10
2023-02-03T05:54:54.033Z,7.10
2023-02-03T05:57:23.966Z,7.10
2023-02-03T06:00:06.087Z,7.20
2023-02-03T06:02:37.826Z,7.10
2023-02-03T06:05:09.108Z,7.10
2023-02-03T06:07:45.747Z,7.10
2023-02-03T06:10:22.438Z,7.10
2023-02-03T06:12:52.728Z,7.10
2023-02-03T06:15:52.693Z,7.10
2023-02-03T06:18:31.184Z,7.10
2023-02-03T06:21:04.941Z,7.10
2023-02-03T06:23:37.580Z,7.10
2023-02-03T06:26:07.569Z,7.20
2023-02-03T06:28:46.180Z,7.20
2023-02-03T06:31:35.188Z,7.20
2023-02-03T06:34:11.201Z,7.20
2023-02-03T06:36:50.095Z,7.20
2023-02-03T06:39:23.012Z,7.20
2023-02-03T06:42:01.366Z,7.20
2023-02-03T06:44:38.002Z,7.20
2023-02-03T06:47:15.301Z,7.20
2023-02-03T06:49:56.103Z,7.30
2023-02-03T06:52:32.465Z,7.30
2023-02-03T06:55:04.703Z,7.30
2023-02-03T06:57:47.663Z,7.30
2023-02-03T07:00:20.961Z,7.30
2023-02-03T07:03:04.020Z,7.40
2023-02-03T07:05:42.061Z,7.40
2023-02-03T07:08:19.144Z,7.40
2023-02-03T07:10:58.978Z,7.40
2023-02-03T07:13:35.854Z,7.50
2023-02-03T07:16:06.231Z,7.40
2023-02-03T07:18:47.778Z,7.50
2023-02-03T07:21:24.918Z,7.50
2023-02-03T07:24:00.612Z,7.50
2023-02-03T07:26:31.020Z,7.50
2023-02-03T07:29:01.136Z,7.50
2023-02-03T07:31:37.390Z,7.60
2023-02-03T07:34:07.867Z,7.60
2023-02-03T07:36:47.102Z,7.60
2023-02-03T07:39:16.940Z,7.60
2023-02-03T07:41:48.829Z,7.60
2023-02-03T07:44:23.576Z,7.60
2023-02-03T07:47:03.763Z,7.70
2023-02-03T07:49:37.974Z,7.70
2023-02-03T07:52:15.164Z,7.70
2023-02-03T07:54:44.495Z,7.70
2023-02-03T07:57:17.147Z,7.90
2023-02-03T07:59:46.779Z,7.80
2023-02-03T08:02:15.596Z,7.80
2023-02-03T08:04:58.947Z,7.90
2023-02-03T08:07:32.761Z,7.90
2023-02-03T08:10:06.125Z,7.90
2023-02-03T08:15:32.166Z,7.90
2023-02-03T08:18:03.051Z,8.00
2023-02-03T08:23:22.860Z,8.00
2023-02-03T08:26:02.899Z,8.00
2023-02-03T08:28:47.485Z,8.00
2023-02-03T08:31:17.051Z,8.00
2023-02-03T08:33:53.817Z,8.00
2023-02-03T08:36:26.787Z,8.00
2023-02-03T08:39:02.511Z,8.00
2023-02-03T08:41:33.654Z,8.10
2023-02-03T08:44:05.582Z,8.10
2023-02-03T08:46:44.124Z,8.10
2023-02-03T08:49:21.715Z,8.10
2023-02-03T08:51:52.888Z,8.20
2023-02-03T08:54:35.231Z,8.20
2023-02-03T08:57:05.048Z,8.20
2023-02-03T08:59:39.589Z,8.30
2023-02-03T09:02:11.175Z,8.20
2023-02-03T09:04:50.662Z,8.20
2023-02-03T09:07:35.151Z,8.30
2023-02-03T09:10:07.834Z,8.30
2023-02-03T09:12:37.178Z,8.30
2023-02-03T09:15:06.912Z,8.40
2023-02-03T09:17:36.417Z,8.60
2023-02-03T09:20:09.406Z,8.40
2023-02-03T09:22:39.297Z,8.40
2023-02-03T09:25:17.750Z,8.40
2023-02-03T09:27:51.682Z,8.40
2023-02-03T09:30:22.208Z,8.40
2023-02-03T09:32:57.786Z,8.50
2023-02-03T09:35:28.299Z,8.50
2023-02-03T09:38:14.144Z,8.50
2023-02-03T09:40:55.464Z,8.50
2023-02-03T09:43:40.155Z,8.50
2023-02-03T09:46:19.473Z,8.50
2023-02-03T09:48:52.372Z,8.50
2023-02-03T09:51:30.594Z,8.50
2023-02-03T09:54:01.561Z,8.50
2023-02-03T09:56:38.165Z,8.50
2023-02-03T09:59:10.473Z,8.50
2023-02-03T10:01:49.033Z,8.50
2023-02-03T10:04:34.956Z,8.50
2023-02-03T10:07:11.849Z,8.50
2023-02-03T10:09:50.075Z,8.50
2023-02-03T10:12:54.324Z,8.50
2023-02-03T10:15:47.591Z,8.50
2023-02-03T10:18:35.045Z,8.50
2023-02-03T10:21:08.444Z,8.50
2023-02-03T10:23:41.585Z,8.50
2023-02-03T10:26:35.741Z,8.50
2023-02-03T10:29:10.171Z,8.50
2023-02-03T10:31:50.584Z,8.50
2023-02-03T10:34:23.591Z,8.50
2023-02-03T10:36:58.162Z,8.50
2023-02-03T10:39:32.693Z,8.50
2023-02-03T10:42:07.281Z,8.50
2023-02-03T10:44:45.404Z,8.50
2023-02-03T10:47:36.411Z,8.50
2023-02-03T10:50:12.876Z,8.40
2023-02-03T10:52:50.655Z,8.40
2023-02-03T10:55:35.727Z,8.40
2023-02-03T10:58:24.104Z,8.40
2023-02-03T11:00:57.270Z,8.40
2023-02-03T11:03:28.267Z,8.40
2023-02-03T11:06:23.965Z,8.40
2023-02-03T11:08:54.003Z,8.40
2023-02-03T11:11:38.103Z,8.50
2023-02-03T11:14:24.788Z,8.50
2023-02-03T11:16:57.067Z,8.50
2023-02-03T11:19:40.133Z,8.50
2023-02-03T11:22:16.162Z,8.60
2023-02-03T11:25:10.971Z,8.50
2023-02-03T11:27:59.074Z,8.50
2023-02-03T11:33:27.422Z,8.50
2023-02-03T11:35:58.859Z,8.40
2023-02-03T11:38:47.027Z,8.40
2023-02-03T11:41:23.049Z,8.50
2023-02-03T11:44:17.695Z,8.50
2023-02-03T11:46:59.860Z,8.50
2023-02-03T11:49:51.188Z,8.40
2023-02-03T11:52:41.907Z,8.40
2023-02-03T11:55:29.112Z,8.40
2023-02-03T11:58:07.519Z,8.40
2023-02-03T12:00:42.542Z,8.40
2023-02-03T12:06:22.223Z,8.40
2023-02-03T12:09:12.071Z,8.40
2023-02-03T12:12:04.312Z,8.50
2023-02-03T12:14:49.911Z,8.50
2023-02-03T12:17:40.163Z,8.50
2023-02-03T12:20:27.513Z,8.60
2023-02-03T12:23:06.257Z,8.60
2023-02-03T12:25:52.946Z,8.60
2023-02-03T12:28:33.726Z,8.60
2023-02-03T12:31:09.881Z,8.70
2023-02-03T12:36:32.877Z,8.60
2023-02-03T12:39:10.947Z,8.60
2023-02-03T12:42:07.371Z,8.60
2023-02-03T12:44:45.107Z,8.70
2023-02-03T12:47:27.894Z,8.70
2023-02-03T12:50:04.023Z,8.70
2023-02-03T12:52:37.752Z,8.70
2023-02-03T12:55:16.793Z,8.70
2023-02-03T12:58:09.262Z,8.70
2023-02-03T13:00:45.991Z,8.70
2023-02-03T13:03:31.177Z,8.60
2023-02-03T13:06:10.874Z,8.70
2023-02-03T13:08:45.140Z,8.70
2023-02-03T13:11:21.869Z,8.70
2023-02-03T13:14:14.448Z,8.80
2023-02-03T13:17:03.440Z,8.90
2023-02-03T13:19:39.391Z,8.90
2023-02-03T13:22:25.775Z,8.90
2023-02-03T13:25:09.631Z,9.00
2023-02-03T13:27:42.865Z,9.00
2023-02-03T13:30:31.499Z,9.10
2023-02-03T13:33:16.417Z,9.00
2023-02-03T13:35:55.812Z,9.00
2023-02-03T13:38:52.908Z,8.90
2023-02-03T13:41:28.801Z,8.90
2023-02-03T13:44:00.838Z,8.80
2023-02-03T13:46:44.132Z,8.80
2023-02-03T13:52:11.641Z,8.80
2023-02-03T13:54:48.070Z,8.80
2023-02-03T13:57:25.152Z,8.80
2023-02-03T14:00:02.380Z,8.70
2023-02-03T14:02:46.852Z,8.70
2023-02-03T14:05:35.843Z,8.60
2023-02-03T14:08:30.962Z,8.60
2023-02-03T14:11:21.613Z,8.40
2023-02-03T14:13:56.546Z,7.50
2023-02-03T14:16:28.283Z,7.00
2023-02-03T14:18:57.757Z,6.90
2023-02-03T14:21:31.712Z,6.80
2023-02-03T14:24:11.992Z,6.80
2023-02-03T14:26:59.719Z,6.90
2023-02-03T14:29:35.647Z,6.90
2023-02-03T14:32:09.254Z,6.90
2023-02-03T14:34:41.185Z,7.10
2023-02-03T14:37:21.885Z,7.10
2023-02-03T14:40:29.800Z,7.20
2023-02-03T14:43:21.195Z,7.30
2023-02-03T14:46:10.644Z,7.30
2023-02-03T14:49:19.310Z,7.30
2023-02-03T14:52:05.073Z,7.20
2023-02-03T14:54:42.850Z,7.20
2023-02-03T15:00:31.807Z,7.20
2023-02-03T15:03:23.957Z,7.20
2023-02-03T15:06:04.118Z,7.30
2023-02-03T15:08:50.226Z,7.20
2023-02-03T15:11:39.163Z,7.20
2023-02-03T15:14:37.391Z,7.20
2023-02-03T15:17:20.126Z,7.30
2023-02-03T15:19:57.875Z,7.30
2023-02-03T15:22:30.032Z,7.40
2023-02-03T15:25:24.431Z,7.60
2023-02-03T15:28:00.182Z,7.70
2023-02-03T15:30:42.076Z,7.90
2023-02-03T15:33:14.514Z,8.00
2023-02-03T15:35:46.350Z,8.00
2023-02-03T15:38:27.643Z,8.10
2023-02-03T15:41:17.090Z,8.10
2023-02-03T15:43:50.353Z,8.20
2023-02-03T15:46:24.823Z,8.20
2023-02-03T15:49:10.042Z,8.20
2023-02-03T15:51:44.918Z,8.30
2023-02-03T15:54:15.801Z,8.30
2023-02-03T15:56:57.878Z,8.20
2023-02-03T15:59:44.921Z,8.20
2023-02-03T16:02:22.191Z,8.20
2023-02-03T16:04:53.209Z,8.20
2023-02-03T16:07:26.489Z,8.30
2023-02-03T16:09:55.463Z,8.30
2023-02-03T16:16:17.919Z,8.20
2023-02-03T16:19:02.638Z,8.20
2023-02-03T16:21:36.205Z,8.20
2023-02-03T16:24:07.386Z,8.20
2023-02-03T16:26:39.678Z,8.20
2023-02-03T16:29:31.344Z,8.20
2023-02-03T16:32:35.568Z,8.10
2023-02-03T16:35:21.545Z,8.10
2023-02-03T16:38:08.718Z,8.10
2023-02-03T16:40:54.802Z,8.10
2023-02-03T16:43:41.991Z,8.10
2023-02-03T16:46:31.597Z,8.10
2023-02-03T16:49:20.490Z,8.10
2023-02-03T16:51:53.192Z,8.10
2023-02-03T16:54:25.222Z,8.10
2023-02-03T16:56:54.187Z,8.10
2023-02-03T16:59:24.400Z,8.00
2023-02-03T17:01:57.243Z,8.00
2023-02-03T17:04:29.364Z,8.00
2023-02-03T17:07:05.860Z,8.00
2023-02-03T17:09:38.431Z,8.00
2023-02-03T17:12:09.882Z,8.00
2023-02-03T17:14:42.003Z,8.00
2023-02-03T17:17:16.244Z,8.00
2023-02-03T17:20:09.769Z,8.00
2023-02-03T17:22:46.243Z,8.00
2023-02-03T17:25:30.663Z,8.00
2023-02-03T17:28:00.813Z,8.00
2023-02-03T17:30:36.010Z,8.00
2023-02-03T17:33:12.539Z,8.00
2023-02-03T17:35:48.733Z,8.00
2023-02-03T17:38:30.322Z,8.00
2023-02-03T17:55:56.665Z,7.80
2023-02-03T17:58:41.260Z,7.80
2023-02-03T18:01:23.040Z,7.80
2023-02-03T18:03:56.634Z,7.80
2023-02-03T18:06:40.208Z,7.70
2023-02-03T18:09:10.764Z,7.70
2023-02-03T18:11:42.992Z,7.70
2023-02-03T18:14:24.699Z,7.70
2023-02-03T18:16:55.998Z,7.70
2023-02-03T18:19:27.467Z,7.70
2023-02-03T18:21:57.975Z,7.70
2023-02-03T18:24:42.977Z,7.60
2023-02-03T18:27:34.159Z,7.60
2023-02-03T18:30:05.417Z,7.60
2023-02-03T18:33:29.227Z,7.60
2023-02-03T18:36:26.598Z,7.60
2023-02-03T18:38:58.493Z,7.60
2023-02-03T18:41:33.983Z,7.60
2023-02-03T18:44:11.408Z,7.60
2023-02-03T18:46:49.311Z,7.50
2023-02-03T18:49:23.007Z,7.50
2023-02-03T18:51:57.652Z,7.50
2023-02-03T18:54:29.925Z,7.50
2023-02-03T18:57:03.753Z,7.50
2023-02-03T19:00:01.781Z,7.50
2023-02-03T19:02:33.193Z,7.50
2023-02-03T19:07:59.503Z,7.50
2023-02-03T19:10:35.324Z,7.50
2023-02-03T19:13:11.743Z,7.50
2023-02-03T19:15:48.852Z,7.50
2023-02-03T19:18:27.472Z,7.50
2023-02-03T19:20:57.507Z,7.50
2023-02-03T19:23:29.672Z,7.50
2023-02-03T19:26:00.220Z,7.50
2023-02-03T19:28:46.338Z,7.40
2023-02-03T19:31:19.301Z,7.40
2023-02-03T19:34:00.696Z,7.30
2023-02-03T19:36:40.163Z,7.30
2023-02-03T19:39:09.964Z,7.30
2023-02-03T19:42:12.544Z,7.30
2023-02-03T19:45:02.166Z,7.30
2023-02-03T19:47:53.358Z,7.20
2023-02-03T19:50:43.124Z,7.30
2023-02-03T19:53:14.731Z,7.30
2023-02-03T19:55:44.981Z,7.30
2023-02-03T19:58:30.585Z,7.40
2023-02-03T20:01:13.258Z,7.30
2023-02-03T20:03:44.096Z,7.30
2023-02-03T20:06:28.120Z,7.30
2023-02-03T20:09:15.547Z,7.30
2023-02-03T20:11:52.035Z,7.30
2023-02-03T20:14:34.114Z,7.30
2023-02-03T20:17:09.399Z,7.30
2023-02-03T20:19:42.318Z,7.20
2023-02-03T20:22:15.585Z,7.20
2023-02-03T20:24:50.467Z,7.20
2023-02-03T20:27:32.707Z,7.20
2023-02-03T20:30:11.623Z,7.20
2023-02-03T20:32:56.790Z,7.20
2023-02-03T20:35:26.798Z,7.20
2023-02-03T20:38:10.900Z,7.10
2023-02-03T20:40:44.702Z,7.10
2023-02-03T20:43:20.200Z,7.10
2023-02-03T20:48:37.306Z,7.10
2023-02-03T20:51:18.912Z,7.10
2023-02-03T20:53:55.442Z,7.10
2023-02-03T20:56:46.239Z,7.20
2023-02-03T20:59:23.687Z,7.20
2023-02-03T21:02:11.211Z,7.10
2023-02-03T21:07:48.620Z,7.30
2023-02-03T21:10:22.697Z,7.10
2023-02-03T21:12:58.176Z,7.10
2023-02-03T21:15:32.189Z,7.10
2023-02-03T21:18:06.375Z,7.10
2023-02-03T21:20:36.899Z,7.10
2023-02-03T21:23:11.445Z,7.10
2023-02-03T21:25:43.646Z,7.10
2023-02-03T21:31:29.893Z,7.00
2023-02-03T21:34:14.948Z,7.00
2023-02-03T21:36:59.659Z,7.00
2023-02-03T21:39:32.695Z,7.00
2023-02-03T21:42:05.041Z,7.00
2023-02-03T21:44:39.551Z,7.00
2023-02-03T21:47:18.049Z,7.00
2023-02-03T21:49:56.631Z,6.90
2023-02-03T21:52:39.810Z,7.00
2023-02-03T21:55:14.451Z,6.90
2023-02-03T21:57:55.046Z,6.90
2023-02-03T22:00:50.990Z,6.90
2023-02-03T22:03:26.177Z,6.90
2023-02-03T22:06:03.716Z,6.90
2023-02-03T22:08:46.548Z,6.80
2023-02-03T22:11:17.171Z,6.80
2023-02-03T22:13:53.674Z,6.80
2023-02-03T22:16:54.055Z,6.80
2023-02-03T22:19:29.997Z,6.80
2023-02-03T22:22:03.100Z,6.80
2023-02-03T22:24:34.096Z,6.80
2023-02-03T22:27:08.606Z,6.80
2023-02-03T22:29:41.733Z,6.80
2023-02-03T22:32:13.139Z,6.70
2023-02-03T22:34:51.891Z,6.80
2023-02-03T22:37:26.285Z,6.80
2023-02-03T22:39:55.485Z,6.70
2023-02-03T22:42:34.753Z,6.80
2023-02-03T22:45:10.653Z,6.70
2023-02-03T22:47:42.652Z,6.70
2023-02-03T22:50:36.509Z,6.70
2023-02-03T22:53:14.991Z,6.70
2023-02-03T22:55:46.668Z,6.70
2023-02-03T22:58:22.355Z,6.70
2023-02-03T23:01:07.972Z,6.70
2023-02-03T23:03:40.087Z,6.70
2023-02-03T23:06:24.722Z,6.70
2023-02-03T23:09:11.516Z,6.70
2023-02-03T23:11:44.469Z,6.70
2023-02-03T23:14:19.611Z,6.70
2023-02-03T23:16:53.695Z,6.70
2023-02-03T23:19:23.340Z,6.70
2023-02-03T23:22:12.425Z,6.60
2023-02-03T23:24:51.682Z,6.60
2023-02-03T23:30:10.398Z,6.60
2023-02-03T23:32:51.176Z,6.50
2023-02-03T23:35:40.754Z,6.50
2023-02-03T23:38:45.575Z,6.50
2023-02-03T23:41:36.315Z,6.50
2023-02-03T23:44:13.590Z,6.50
2023-02-03T23:46:51.180Z,6.40
2023-02-03T23:49:42.218Z,6.40
2023-02-03T23:52:18.666Z,6.40
2023-02-03T23:55:11.370Z,6.30
